Time;durP1;ratioP1;P1;durP2;ratioP2;P2;SDS_P1;SDS_P2;PMS_P1;PMS_P2;Temp;Humidity;BMP_temperature;BMP_pressure;BME280_temperature;BME280_humidity;BME280_pressure;Samples;Min_cycle;Max_cycle;Signal;HPM_P1;HPM_P2
2022/10/20 00:00:53;;;;;;;0.40;0.40;;;5.20;99.90;;;;;;5029423;28;20389;-70
2022/10/20 00:03:18;;;;;;;0.50;0.50;;;5.20;99.90;;;;;;5028129;28;20081;-69
2022/10/20 00:05:44;;;;;;;0.40;0.40;;;5.10;99.90;;;;;;5030814;28;20032;-70
2022/10/20 00:08:10;;;;;;;0.50;0.50;;;5.10;99.90;;;;;;5029680;28;20492;-70
2022/10/20 00:10:35;;;;;;;0.40;0.40;;;5.20;99.90;;;;;;5029333;28;20060;-70
2022/10/20 00:13:01;;;;;;;0.40;0.40;;;5.10;99.90;;;;;;5030234;28;20036;-69
2022/10/20 00:15:27;;;;;;;0.40;0.40;;;5.10;99.90;;;;;;5027034;28;20033;-70
2022/10/20 00:17:53;;;;;;;0.40;0.40;;;5.20;99.90;;;;;;5029680;28;20065;-69
2022/10/20 00:20:18;;;;;;;0.40;0.40;;;5.20;99.90;;;;;;5029916;28;20059;-69
2022/10/20 00:22:44;;;;;;;0.40;0.40;;;5.10;99.90;;;;;;5028318;28;20120;-70
2022/10/20 00:25:10;;;;;;;0.40;0.40;;;5.10;99.90;;;;;;5029300;28;20025;-69
2022/10/20 00:27:35;;;;;;;0.40;0.40;;;5.10;99.90;;;;;;5030009;28;20030;-70
2022/10/20 00:30:01;;;;;;;0.40;0.40;;;5.10;99.90;;;;;;5028896;28;20026;-69
2022/10/20 00:32:28;;;;;;;0.40;0.40;;;6.70;99.90;;;;;;5029193;28;20030;-70
2022/10/20 00:34:54;;;;;;;0.40;0.40;;;5.10;99.90;;;;;;5029732;28;20389;-70
2022/10/20 00:37:19;;;;;;;0.40;0.40;;;5.00;99.90;;;;;;5033762;28;20091;-71
2022/10/20 00:39:45;;;;;;;0.40;0.40;;;5.00;99.90;;;;;;5032817;28;20124;-70
2022/10/20 00:42:15;;;;;;;0.40;0.40;;;5.00;99.90;;;;;;5034617;28;20029;-70
2022/10/20 00:44:53;;;;;;;0.40;0.40;;;4.90;99.90;;;;;;5032107;28;20114;-70
2022/10/20 00:47:36;;;;;;;0.40;0.40;;;4.90;99.90;;;;;;5032217;28;20049;-70
2022/10/20 00:50:22;;;;;;;0.32;0.32;;;4.90;99.90;;;;;;5033245;28;20034;-71
2022/10/20 00:52:48;;;;;;;0.40;0.40;;;4.90;99.90;;;;;;5024335;28;20041;-69
2022/10/20 00:55:21;;;;;;;0.40;0.40;;;4.90;99.90;;;;;;5030135;28;20052;-69
2022/10/20 00:57:49;;;;;;;0.30;0.30;;;4.90;99.90;;;;;;5033893;28;20034;-70
2022/10/20 01:00:16;;;;;;;0.38;0.38;;;4.90;99.90;;;;;;5018898;28;20376;-70
2022/10/20 01:02:42;;;;;;;0.40;0.40;;;4.90;99.90;;;;;;5033718;28;20096;-70
2022/10/20 01:05:08;;;;;;;0.40;0.40;;;4.90;99.90;;;;;;5031232;28;20469;-70
2022/10/20 01:07:34;;;;;;;0.50;0.50;;;4.90;99.90;;;;;;5033088;28;20087;-70
2022/10/20 01:10:01;;;;;;;0.40;0.40;;;4.90;99.90;;;;;;5033239;28;20040;-70
2022/10/20 01:12:59;;;;;;;0.30;0.30;;;5.00;99.90;;;;;;5031572;28;20033;-69
2022/10/20 01:15:39;;;;;;;7.00;1.67;;;5.00;99.90;;;;;;5032232;28;20029;-69
2022/10/20 01:18:22;;;;;;;0.40;0.40;;;5.00;99.90;;;;;;5033405;28;20037;-69
2022/10/20 01:21:15;;;;;;;0.40;0.40;;;4.90;99.90;;;;;;5030417;28;20364;-70
2022/10/20 01:24:00;;;;;;;0.40;0.40;;;5.00;99.90;;;;;;5033482;28;20053;-69
2022/10/20 01:26:47;;;;;;;0.88;0.88;;;4.90;99.90;;;;;;5033821;28;20404;-69
2022/10/20 01:29:25;;;;;;;0.40;0.40;;;4.90;99.90;;;;;;5031305;28;20033;-69
2022/10/20 01:32:21;;;;;;;0.45;0.45;;;4.80;99.90;;;;;;5032582;28;20481;-69
2022/10/20 01:35:28;;;;;;;2.25;1.00;;;4.80;99.90;;;;;;5030725;28;20033;-70
2022/10/20 01:38:06;;;;;;;0.40;0.40;;;4.80;99.90;;;;;;5032236;28;20046;-70
2022/10/20 01:40:53;;;;;;;0.30;0.30;;;4.70;99.90;;;;;;5032998;28;20117;-70
2022/10/20 01:43:22;;;;;;;0.40;0.40;;;4.70;99.90;;;;;;5032617;28;20033;-69
2022/10/20 01:45:49;;;;;;;0.40;0.40;;;4.60;99.90;;;;;;5032461;28;20523;-69
2022/10/20 01:48:20;;;;;;;0.70;0.70;;;4.60;99.90;;;;;;5029974;28;20045;-69
2022/10/20 01:50:47;;;;;;;0.38;0.38;;;4.70;99.90;;;;;;5030336;28;20435;-69
2022/10/20 01:53:13;;;;;;;0.40;0.40;;;4.70;99.90;;;;;;5032419;28;20397;-69
2022/10/20 01:55:39;;;;;;;0.45;0.45;;;4.60;99.90;;;;;;5030367;28;20056;-68
2022/10/20 01:58:23;;;;;;;0.40;0.40;;;4.70;99.90;;;;;;5032641;28;20041;-69
2022/10/20 02:00:51;;;;;;;0.30;0.30;;;4.70;99.90;;;;;;5029313;28;20070;-70
2022/10/20 02:03:44;;;;;;;0.30;0.30;;;4.80;99.90;;;;;;5032349;28;20091;-70
2022/10/20 02:06:41;;;;;;;0.30;0.30;;;4.80;99.90;;;;;;5028728;28;20497;-70
2022/10/20 02:09:22;;;;;;;0.30;0.30;;;4.80;99.90;;;;;;5031731;28;20572;-70
2022/10/20 02:12:09;;;;;;;0.30;0.30;;;4.80;99.90;;;;;;5031404;28;20033;-70
2022/10/20 02:14:36;;;;;;;0.30;0.30;;;4.80;99.90;;;;;;5030994;28;20026;-70
2022/10/20 02:17:06;;;;;;;0.30;0.30;;;4.80;99.90;;;;;;5031627;28;20112;-70
2022/10/20 02:19:40;;;;;;;0.40;0.40;;;4.80;99.90;;;;;;5030383;28;20025;-70
2022/10/20 02:22:07;;;;;;;0.30;0.30;;;4.80;99.90;;;;;;5030838;28;20037;-71
2022/10/20 02:24:38;;;;;;;0.40;0.40;;;4.80;99.90;;;;;;5032156;28;20022;-71
2022/10/20 02:27:10;;;;;;;0.40;0.40;;;4.80;99.90;;;;;;5031608;28;20540;-71
2022/10/20 02:29:40;;;;;;;0.40;0.40;;;4.80;99.90;;;;;;5031978;28;20095;-70
2022/10/20 02:32:07;;;;;;;0.30;0.30;;;4.80;99.90;;;;;;5031501;28;20046;-70
2022/10/20 02:34:33;;;;;;;0.40;0.40;;;4.80;99.90;;;;;;5031484;28;20436;-70
2022/10/20 02:36:59;;;;;;;0.40;0.40;;;4.80;99.90;;;;;;5032560;28;20113;-70
2022/10/20 02:39:25;;;;;;;0.40;0.40;;;4.80;99.90;;;;;;5032620;28;20150;-71
2022/10/20 02:41:51;;;;;;;0.40;0.40;;;4.80;99.90;;;;;;5032575;28;20047;-70
2022/10/20 02:44:16;;;;;;;0.40;0.40;;;4.80;99.90;;;;;;5032502;28;20447;-70
2022/10/20 02:46:42;;;;;;;0.40;0.40;;;4.80;99.90;;;;;;5032750;28;20688;-70
2022/10/20 02:49:08;;;;;;;0.60;0.60;;;4.80;99.90;;;;;;5031027;28;20225;-70
2022/10/20 02:51:33;;;;;;;0.40;0.40;;;4.90;99.90;;;;;;5030711;28;20037;-70
2022/10/20 02:53:59;;;;;;;0.40;0.40;;;4.80;99.90;;;;;;5029533;28;20120;-69
2022/10/20 02:56:25;;;;;;;0.40;0.40;;;4.80;99.90;;;;;;5032475;28;20365;-69
2022/10/20 02:58:50;;;;;;;0.40;0.40;;;4.80;99.90;;;;;;5029632;28;20109;-69
2022/10/20 03:01:16;;;;;;;0.40;0.40;;;4.80;99.90;;;;;;5030990;28;20040;-70
2022/10/20 03:03:42;;;;;;;0.40;0.40;;;4.80;99.90;;;;;;5031069;28;20025;-69
2022/10/20 03:06:13;;;;;;;0.40;0.40;;;4.80;99.90;;;;;;5028969;28;20037;-69
2022/10/20 03:08:39;;;;;;;0.35;0.35;;;4.80;99.90;;;;;;5030922;28;20071;-70
2022/10/20 03:11:05;;;;;;;0.40;0.40;;;4.80;99.90;;;;;;5030426;28;20184;-70
2022/10/20 03:13:31;;;;;;;0.40;0.40;;;4.90;99.90;;;;;;5030847;28;20370;-70
2022/10/20 03:15:56;;;;;;;0.40;0.40;;;4.80;99.90;;;;;;5031755;28;20075;-69
2022/10/20 03:18:22;;;;;;;0.40;0.40;;;4.70;99.90;;;;;;5030678;28;20212;-69
2022/10/20 03:20:52;;;;;;;0.40;0.40;;;4.60;99.90;;;;;;5030953;28;20099;-69
2022/10/20 03:23:18;;;;;;;0.40;0.40;;;4.70;99.90;;;;;;5030236;28;20038;-70
2022/10/20 03:25:43;;;;;;;0.40;0.40;;;4.70;99.90;;;;;;5031600;28;20083;-70
2022/10/20 03:28:09;;;;;;;0.40;0.40;;;4.80;99.90;;;;;;5031094;28;20369;-70
2022/10/20 03:30:34;;;;;;;0.40;0.40;;;4.70;99.90;;;;;;5028243;28;20026;-70
2022/10/20 03:33:00;;;;;;;0.40;0.40;;;4.70;99.90;;;;;;5031172;28;20021;-69
2022/10/20 03:35:26;;;;;;;0.40;0.40;;;4.70;99.90;;;;;;5029968;28;20452;-69
2022/10/20 03:37:51;;;;;;;0.53;0.53;;;4.70;99.90;;;;;;5030034;28;20033;-69
2022/10/20 03:40:17;;;;;;;0.40;0.40;;;4.70;99.90;;;;;;5028679;28;20044;-69
2022/10/20 03:42:43;;;;;;;1.63;1.53;;;4.60;99.90;;;;;;5030670;28;20465;-69
2022/10/20 03:45:09;;;;;;;0.40;0.40;;;4.60;99.90;;;;;;5031344;28;20286;-70
2022/10/20 03:47:34;;;;;;;1.23;1.13;;;4.60;99.90;;;;;;5029241;28;20060;-70
2022/10/20 03:50:00;;;;;;;0.40;0.40;;;4.60;99.90;;;;;;5029253;28;20271;-70
2022/10/20 03:52:25;;;;;;;0.40;0.40;;;4.60;99.90;;;;;;5030603;28;20461;-70
2022/10/20 03:54:51;;;;;;;0.40;0.40;;;4.60;99.90;;;;;;5029073;28;20044;-70
2022/10/20 03:57:18;;;;;;;0.40;0.40;;;4.60;99.90;;;;;;5028611;28;20029;-69
2022/10/20 03:59:43;;;;;;;;;;;4.60;99.90;;;;;;5029153;28;20329;-69
2022/10/20 04:02:28;;;;;;;0.30;0.30;;;4.60;99.90;;;;;;5030993;28;19945;-70
2022/10/20 04:04:54;;;;;;;0.40;0.40;;;4.60;99.90;;;;;;5012940;28;20087;-70
2022/10/20 04:07:19;;;;;;;0.40;0.40;;;4.60;99.90;;;;;;5031389;28;20033;-69
2022/10/20 04:09:45;;;;;;;0.40;0.40;;;4.60;99.90;;;;;;5030026;28;20448;-69
2022/10/20 04:12:10;;;;;;;0.40;0.40;;;4.60;99.90;;;;;;5029286;28;20120;-69
2022/10/20 04:14:36;;;;;;;0.40;0.40;;;4.60;99.90;;;;;;5029754;28;20033;-69
2022/10/20 04:17:01;;;;;;;0.40;0.40;;;4.50;99.90;;;;;;5030409;28;20034;-70
2022/10/20 04:19:27;;;;;;;0.97;0.97;;;4.50;99.90;;;;;;5029209;28;20187;-69
2022/10/20 04:21:52;;;;;;;0.40;0.40;;;4.40;99.90;;;;;;5028368;28;20078;-71
2022/10/20 04:24:18;;;;;;;0.40;0.40;;;4.50;99.90;;;;;;5030234;28;20234;-70
2022/10/20 04:26:43;;;;;;;0.40;0.40;;;4.50;99.90;;;;;;5028048;28;20033;-70
2022/10/20 04:29:09;;;;;;;0.40;0.40;;;6.40;99.90;;;;;;5029887;28;20037;-69
2022/10/20 04:31:35;;;;;;;0.30;0.30;;;4.40;99.90;;;;;;5029766;28;20395;-70
2022/10/20 04:34:00;;;;;;;0.40;0.40;;;4.40;99.90;;;;;;5029643;28;20042;-70
2022/10/20 04:36:26;;;;;;;0.47;0.47;;;4.40;99.90;;;;;;5029695;28;20058;-70
2022/10/20 04:38:51;;;;;;;1.33;1.33;;;4.40;99.90;;;;;;5030270;28;20025;-71
2022/10/20 04:41:17;;;;;;;0.40;0.40;;;4.40;99.90;;;;;;5029393;28;20541;-70
2022/10/20 04:43:42;;;;;;;0.70;0.70;;;4.40;99.90;;;;;;5029738;28;20533;-71
2022/10/20 04:46:09;;;;;;;0.40;0.40;;;4.40;99.90;;;;;;5027972;28;20088;-69
2022/10/20 04:48:36;;;;;;;0.50;0.50;;;4.40;99.90;;;;;;5029206;28;20146;-70
2022/10/20 04:51:03;;;;;;;;;;;4.40;99.90;;;;;;5027970;28;20428;-71
2022/10/20 04:53:28;;;;;;;0.30;0.30;;;4.40;99.90;;;;;;5028506;28;19939;-70
2022/10/20 04:55:55;;;;;;;1.23;1.17;;;4.40;99.90;;;;;;5028836;28;20037;-71
2022/10/20 04:58:21;;;;;;;0.43;0.43;;;4.50;99.90;;;;;;5029749;28;20026;-69
2022/10/20 05:00:47;;;;;;;0.40;0.40;;;4.40;99.90;;;;;;5029717;28;20064;-70
2022/10/20 05:03:13;;;;;;;0.40;0.40;;;3.10;99.90;;;;;;5029645;28;20449;-69
2022/10/20 05:05:38;;;;;;;0.50;0.50;;;4.40;99.90;;;;;;5031527;28;20077;-69
2022/10/20 05:08:04;;;;;;;0.83;0.83;;;4.40;99.90;;;;;;5028104;28;20033;-70
2022/10/20 05:10:29;;;;;;;0.50;0.50;;;4.50;99.90;;;;;;5029966;28;20033;-70
2022/10/20 05:12:55;;;;;;;0.40;0.40;;;4.40;99.90;;;;;;5029495;28;20071;-70
2022/10/20 05:15:20;;;;;;;0.40;0.40;;;4.50;99.90;;;;;;5029432;28;20044;-70
2022/10/20 05:17:46;;;;;;;0.40;0.40;;;4.50;99.90;;;;;;5029888;28;20117;-69
2022/10/20 05:20:12;;;;;;;0.40;0.40;;;4.50;99.90;;;;;;5027154;28;20547;-70
2022/10/20 05:22:37;;;;;;;0.50;0.50;;;4.50;99.90;;;;;;5032889;28;20033;-70
2022/10/20 05:25:03;;;;;;;0.40;0.40;;;4.50;99.90;;;;;;5031785;28;20417;-70
2022/10/20 05:27:29;;;;;;;0.40;0.40;;;4.50;99.90;;;;;;5035545;28;20056;-70
2022/10/20 05:29:54;;;;;;;0.50;0.50;;;4.50;99.90;;;;;;5032059;28;20065;-70
2022/10/20 05:32:20;;;;;;;0.40;0.40;;;4.50;99.90;;;;;;5031968;28;20034;-70
2022/10/20 05:34:46;;;;;;;0.30;0.30;;;4.60;99.90;;;;;;5031158;28;20388;-71
2022/10/20 05:37:11;;;;;;;0.40;0.40;;;4.60;99.90;;;;;;5033519;28;20437;-69
2022/10/20 05:39:37;;;;;;;0.40;0.40;;;4.60;99.90;;;;;;5031201;28;20046;-69
2022/10/20 05:42:03;;;;;;;0.40;0.40;;;4.60;99.90;;;;;;5032976;28;20030;-69
2022/10/20 05:44:28;;;;;;;0.40;0.40;;;4.50;99.90;;;;;;5031802;28;20110;-70
2022/10/20 05:46:54;;;;;;;0.93;0.90;;;4.40;99.90;;;;;;5033586;28;20045;-70
2022/10/20 05:49:22;;;;;;;0.40;0.40;;;4.40;99.90;;;;;;5031154;28;20397;-70
2022/10/20 05:51:47;;;;;;;0.30;0.30;;;4.40;99.90;;;;;;5032800;28;20366;-70
2022/10/20 05:54:14;;;;;;;0.40;0.40;;;4.40;99.90;;;;;;5032978;28;20120;-70
2022/10/20 05:56:39;;;;;;;0.88;0.88;;;4.40;99.90;;;;;;5033589;28;20023;-70
2022/10/20 05:59:05;;;;;;;0.40;0.40;;;4.40;99.90;;;;;;5031375;28;20041;-69
2022/10/20 06:01:46;;;;;;;0.50;0.50;;;4.40;99.90;;;;;;5033031;28;20438;-71
2022/10/20 06:04:13;;;;;;;0.40;0.40;;;4.40;99.90;;;;;;5031883;28;20033;-70
2022/10/20 06:06:38;;;;;;;;;;;4.40;99.90;;;;;;5031155;28;20049;-69
2022/10/20 06:09:06;;;;;;;0.30;0.30;;;4.40;99.90;;;;;;5031235;28;19936;-70
2022/10/20 06:11:32;;;;;;;0.90;0.85;;;4.50;99.90;;;;;;5032297;28;20041;-70
2022/10/20 06:13:57;;;;;;;0.40;0.40;;;4.40;99.90;;;;;;5031417;28;20044;-71
2022/10/20 06:16:25;;;;;;;0.97;0.97;;;4.40;99.90;;;;;;5032969;28;20478;-69
2022/10/20 06:18:51;;;;;;;0.30;0.30;;;4.50;99.90;;;;;;5031369;28;20033;-70
2022/10/20 06:21:19;;;;;;;0.40;0.40;;;4.40;99.90;;;;;;5032891;28;20025;-70
2022/10/20 06:23:44;;;;;;;1.20;0.82;;;4.40;99.90;;;;;;5031986;28;20123;-71
2022/10/20 06:26:12;;;;;;;1.13;1.13;;;4.40;99.90;;;;;;5031176;28;20113;-71
2022/10/20 06:28:39;;;;;;;0.40;0.40;;;4.30;99.90;;;;;;5030230;28;20764;-71
2022/10/20 06:31:12;;;;;;;1.10;0.93;;;4.40;99.90;;;;;;5032718;28;20033;-71
2022/10/20 06:33:38;;;;;;;0.40;0.40;;;4.40;99.90;;;;;;5030527;28;20037;-71
2022/10/20 06:36:03;;;;;;;0.67;0.67;;;4.30;99.90;;;;;;5031456;28;20035;-71
2022/10/20 06:38:29;;;;;;;0.40;0.40;;;4.40;99.90;;;;;;5030068;28;20076;-70
2022/10/20 06:40:55;;;;;;;0.67;0.67;;;4.40;99.90;;;;;;5031787;28;20063;-71
2022/10/20 06:43:21;;;;;;;0.40;0.40;;;4.40;99.90;;;;;;5030136;28;20033;-71
2022/10/20 06:45:55;;;;;;;0.40;0.40;;;4.40;99.90;;;;;;5031004;28;20037;-69
2022/10/20 06:48:20;;;;;;;0.40;0.40;;;4.50;99.90;;;;;;5029505;28;20492;-70
2022/10/20 06:50:46;;;;;;;0.40;0.40;;;4.50;99.90;;;;;;5030137;28;20032;-71
2022/10/20 06:53:11;;;;;;;0.40;0.40;;;4.60;99.90;;;;;;5030520;28;20044;-70
2022/10/20 06:55:38;;;;;;;0.43;0.43;;;4.60;99.90;;;;;;5030014;28;20041;-71
2022/10/20 06:58:03;;;;;;;0.40;0.40;;;4.30;99.90;;;;;;5030412;28;20495;-70
2022/10/20 07:00:29;;;;;;;0.50;0.50;;;4.60;99.90;;;;;;5030246;28;20028;-70
2022/10/20 07:02:54;;;;;;;0.50;0.50;;;4.70;99.90;;;;;;5031261;28;20112;-70
2022/10/20 07:05:20;;;;;;;0.40;0.40;;;4.70;99.90;;;;;;5029206;28;20040;-70
2022/10/20 07:07:46;;;;;;;0.40;0.40;;;4.70;99.90;;;;;;5028046;28;20124;-71
2022/10/20 07:10:12;;;;;;;0.40;0.40;;;4.70;99.90;;;;;;5029559;28;20389;-70
2022/10/20 07:12:38;;;;;;;0.40;0.40;;;4.70;99.90;;;;;;5028123;28;20029;-71
2022/10/20 07:15:04;;;;;;;0.53;0.53;;;4.70;99.90;;;;;;5031364;28;20148;-69
2022/10/20 07:17:30;;;;;;;;;;;4.70;99.90;;;;;;5030804;28;20064;-71
2022/10/20 07:19:56;;;;;;;0.63;0.63;;;4.70;99.90;;;;;;5031356;28;19925;-70
2022/10/20 07:22:21;;;;;;;1.17;1.07;;;4.80;99.90;;;;;;5031068;28;20499;-71
2022/10/20 07:24:47;;;;;;;0.60;0.60;;;4.80;99.90;;;;;;5031816;28;20109;-71
2022/10/20 07:27:12;;;;;;;0.40;0.40;;;4.80;99.90;;;;;;5029290;28;20033;-70
2022/10/20 07:29:38;;;;;;;0.40;0.40;;;4.80;99.90;;;;;;5030703;28;20532;-71
2022/10/20 07:32:03;;;;;;;0.40;0.40;;;4.80;99.90;;;;;;5029704;28;20524;-71
2022/10/20 07:34:29;;;;;;;0.40;0.40;;;4.70;99.90;;;;;;5029740;28;20037;-71
2022/10/20 07:36:55;;;;;;;0.60;0.60;;;4.80;99.90;;;;;;5030017;28;20103;-71
2022/10/20 07:39:21;;;;;;;0.88;0.88;;;4.70;99.90;;;;;;5028646;28;20040;-70
2022/10/20 07:41:47;;;;;;;0.40;0.40;;;4.60;99.90;;;;;;5031732;28;20647;-71
2022/10/20 07:44:13;;;;;;;0.40;0.40;;;4.70;99.90;;;;;;5029164;28;20032;-71
2022/10/20 07:46:39;;;;;;;0.40;0.40;;;4.70;99.90;;;;;;5028797;28;20072;-71
2022/10/20 07:49:04;;;;;;;0.40;0.40;;;4.70;99.90;;;;;;5032824;28;20033;-71
2022/10/20 07:51:31;;;;;;;0.40;0.40;;;4.70;99.90;;;;;;5011846;28;20038;-71
2022/10/20 07:54:07;;;;;;;0.40;0.40;;;4.70;99.90;;;;;;5030437;28;20052;-70
2022/10/20 07:56:36;;;;;;;0.40;0.40;;;4.80;99.90;;;;;;5030141;28;20056;-70
2022/10/20 07:59:03;;;;;;;0.98;0.98;;;4.80;99.90;;;;;;5029107;28;20358;-70
2022/10/20 08:01:28;;;;;;;0.50;0.50;;;4.80;99.90;;;;;;5028966;28;20365;-70
2022/10/20 08:03:54;;;;;;;0.40;0.40;;;4.80;99.90;;;;;;5028152;28;20040;-70
2022/10/20 08:06:20;;;;;;;0.40;0.40;;;4.80;99.90;;;;;;5029056;28;20089;-71
2022/10/20 08:08:45;;;;;;;0.40;0.40;;;4.80;99.90;;;;;;5028854;28;20515;-71
2022/10/20 08:11:11;;;;;;;0.50;0.50;;;4.80;99.90;;;;;;5031010;28;20041;-71
2022/10/20 08:13:39;;;;;;;0.40;0.40;;;4.80;99.90;;;;;;5028834;28;20032;-72
2022/10/20 08:16:06;;;;;;;0.30;0.30;;;4.80;99.90;;;;;;5029501;28;20401;-71
2022/10/20 08:18:32;;;;;;;0.40;0.40;;;4.80;99.90;;;;;;5029615;28;20241;-70
2022/10/20 08:21:09;;;;;;;0.33;0.33;;;4.90;99.90;;;;;;5029791;28;20297;-70
2022/10/20 08:23:38;;;;;;;0.47;0.47;;;4.90;99.90;;;;;;5029711;28;20034;-70
2022/10/20 08:26:03;;;;;;;0.50;0.50;;;4.90;99.90;;;;;;5030021;28;20482;-70
2022/10/20 08:28:29;;;;;;;0.40;0.40;;;4.90;99.90;;;;;;5029651;28;20109;-70
2022/10/20 08:30:54;;;;;;;0.47;0.47;;;4.90;99.90;;;;;;5029879;28;20029;-70
2022/10/20 08:33:20;;;;;;;0.47;0.47;;;4.90;99.90;;;;;;5027362;28;20026;-71
2022/10/20 08:35:45;;;;;;;0.40;0.40;;;4.90;99.90;;;;;;5028842;28;20033;-70
2022/10/20 08:38:11;;;;;;;0.40;0.40;;;5.00;99.90;;;;;;5029595;28;20024;-71
2022/10/20 08:40:41;;;;;;;0.40;0.40;;;5.00;99.90;;;;;;5029448;28;20033;-71
2022/10/20 08:43:16;;;;;;;0.30;0.30;;;5.00;99.90;;;;;;5028739;28;20374;-70
2022/10/20 08:45:41;;;;;;;0.40;0.40;;;5.00;99.90;;;;;;5029437;28;20053;-69
2022/10/20 08:48:15;;;;;;;0.30;0.30;;;5.00;99.90;;;;;;5028480;28;20049;-70
2022/10/20 08:50:46;;;;;;;0.30;0.30;;;5.10;99.90;;;;;;5026452;28;20045;-71
2022/10/20 08:53:12;;;;;;;0.30;0.30;;;5.00;99.90;;;;;;5028597;28;20038;-69
2022/10/20 08:55:41;;;;;;;0.40;0.40;;;5.00;99.90;;;;;;5029078;28;20042;-70
2022/10/20 08:58:20;;;;;;;0.45;0.45;;;5.00;99.90;;;;;;5031247;28;20025;-71
2022/10/20 09:00:46;;;;;;;0.30;0.30;;;5.10;99.90;;;;;;5032590;28;20061;-70
2022/10/20 09:03:17;;;;;;;0.40;0.40;;;5.00;99.90;;;;;;5033252;28;20033;-70
2022/10/20 09:05:48;;;;;;;0.30;0.30;;;5.10;99.90;;;;;;5031325;28;20040;-69
2022/10/20 09:08:13;;;;;;;0.50;0.50;;;5.10;99.90;;;;;;5032569;28;20034;-70
2022/10/20 09:10:47;;;;;;;0.40;0.40;;;5.10;99.90;;;;;;5033541;28;20033;-70
2022/10/20 09:13:25;;;;;;;0.50;0.50;;;5.10;99.90;;;;;;5033126;28;20044;-70
2022/10/20 09:15:54;;;;;;;0.35;0.35;;;5.10;99.90;;;;;;5033111;28;20030;-71
2022/10/20 09:18:20;;;;;;;0.40;0.40;;;5.20;99.90;;;;;;5032560;28;20100;-70
2022/10/20 09:20:56;;;;;;;0.40;0.40;;;5.10;99.90;;;;;;5032962;28;20508;-70
2022/10/20 09:23:41;;;;;;;0.40;0.40;;;5.10;99.90;;;;;;5031940;28;20481;-71
2022/10/20 09:26:22;;;;;;;0.35;0.35;;;5.20;99.90;;;;;;5033018;28;20065;-70
2022/10/20 09:28:50;;;;;;;0.30;0.30;;;5.30;99.90;;;;;;5032935;28;20030;-69
2022/10/20 09:31:34;;;;;;;0.38;0.38;;;5.20;99.90;;;;;;5032168;28;20037;-70
2022/10/20 09:34:00;;;;;;;0.30;0.30;;;5.30;99.90;;;;;;5031508;28;20080;-70
2022/10/20 09:36:33;;;;;;;0.45;0.45;;;5.30;99.90;;;;;;5032380;28;20489;-67
2022/10/20 09:38:59;;;;;;;0.30;0.30;;;5.30;99.90;;;;;;5031876;28;20030;-72
2022/10/20 09:41:32;;;;;;;0.40;0.40;;;5.60;99.90;;;;;;5033187;28;20504;-74
2022/10/20 09:44:05;;;;;;;0.40;0.40;;;5.60;99.90;;;;;;5026991;28;20684;-71
2022/10/20 09:46:38;;;;;;;0.30;0.30;;;5.60;99.90;;;;;;5030095;28;20034;-74
2022/10/20 09:49:05;;;;;;;0.30;0.30;;;5.70;99.90;;;;;;5031877;28;20075;-70
2022/10/20 09:51:31;;;;;;;0.57;0.57;;;5.70;99.90;;;;;;5031506;28;20128;-72
2022/10/20 09:54:02;;;;;;;0.50;0.50;;;6.50;99.90;;;;;;5031674;28;20108;-73
2022/10/20 09:56:32;;;;;;;0.50;0.50;;;5.70;99.90;;;;;;5033899;28;20038;-70
2022/10/20 09:59:00;;;;;;;0.40;0.40;;;5.80;99.90;;;;;;5029868;28;20034;-70
2022/10/20 10:01:26;;;;;;;0.32;0.32;;;5.80;99.90;;;;;;5013917;28;20040;-68
2022/10/20 10:04:00;;;;;;;0.40;0.40;;;5.80;99.90;;;;;;5019504;28;20384;-70
2022/10/20 10:06:26;;;;;;;0.30;0.30;;;5.90;99.90;;;;;;5030647;28;20091;-71
2022/10/20 10:08:52;;;;;;;0.40;0.40;;;5.90;99.90;;;;;;5028323;28;20424;-70
2022/10/20 10:11:21;;;;;;;0.50;0.50;;;5.80;99.90;;;;;;5032084;28;20290;-70
2022/10/20 10:13:49;;;;;;;0.43;0.43;;;5.70;99.90;;;;;;5032979;28;20124;-70
2022/10/20 10:16:18;;;;;;;0.60;0.60;;;6.90;99.90;;;;;;5028192;28;20028;-71
2022/10/20 10:18:58;;;;;;;0.30;0.30;;;5.80;99.90;;;;;;5031106;28;20049;-74
2022/10/20 10:21:24;;;;;;;0.30;0.30;;;5.80;99.90;;;;;;5030238;28;20072;-71
2022/10/20 10:23:59;;;;;;;0.40;0.40;;;5.80;99.90;;;;;;5032572;28;20497;-73
2022/10/20 10:26:44;;;;;;;0.50;0.50;;;5.90;99.90;;;;;;5033337;28;20029;-72
2022/10/20 10:29:48;;;;;;;0.40;0.40;;;5.90;99.90;;;;;;5031475;28;20484;-70
2022/10/20 10:32:15;;;;;;;0.30;0.30;;;6.00;99.90;;;;;;5030444;28;20592;-74
2022/10/20 10:34:59;;;;;;;0.70;0.70;;;6.10;99.90;;;;;;5028644;28;20475;-72
2022/10/20 10:37:25;;;;;;;1.15;1.13;;;6.10;99.90;;;;;;5024312;28;20060;-72
2022/10/20 10:39:51;;;;;;;0.40;0.40;;;6.10;99.90;;;;;;5032757;28;20033;-72
2022/10/20 10:42:33;;;;;;;0.40;0.40;;;6.10;99.90;;;;;;5029437;28;20033;-73
2022/10/20 10:45:24;;;;;;;0.30;0.30;;;6.20;99.90;;;;;;5030834;28;20037;-74
2022/10/20 10:48:17;;;;;;;0.50;0.50;;;6.30;99.90;;;;;;5030640;28;20045;-68
2022/10/20 10:51:31;;;;;;;0.60;0.60;;;6.60;99.90;;;;;;5031705;28;20684;-72
2022/10/20 10:54:15;;;;;;;0.40;0.40;;;7.00;99.90;;;;;;5028657;28;20026;-73
2022/10/20 10:56:53;;;;;;;0.32;0.32;;;7.20;99.90;;;;;;5028875;28;20125;-72
2022/10/20 10:59:35;;;;;;;0.43;0.43;;;7.20;99.90;;;;;;5029354;28;20079;-73
2022/10/20 11:02:15;;;;;;;0.30;0.30;;;7.00;99.90;;;;;;5026663;28;20033;-74
2022/10/20 11:05:00;;;;;;;0.80;0.77;;;6.90;99.90;;;;;;5031843;28;20029;-72
2022/10/20 11:07:37;;;;;;;0.40;0.40;;;6.80;99.90;;;;;;5030370;28;20041;-75
2022/10/20 11:10:49;;;;;;;0.30;0.30;;;6.70;99.90;;;;;;5032651;28;20488;-73
2022/10/20 11:13:53;;;;;;;0.85;0.85;;;6.60;99.90;;;;;;5021303;28;20034;-73
2022/10/20 11:16:46;;;;;;;0.40;0.40;;;6.50;99.90;;;;;;5030264;28;20029;-76
2022/10/20 11:19:50;;;;;;;0.40;0.40;;;6.50;99.90;;;;;;5030066;28;20029;-74
2022/10/20 11:22:34;;;;;;;0.50;0.50;;;6.50;99.90;;;;;;5028555;28;20065;-74
2022/10/20 11:25:17;;;;;;;0.40;0.40;;;6.40;99.90;;;;;;5029767;28;20164;-73
2022/10/20 11:27:43;;;;;;;0.30;0.30;;;6.30;99.90;;;;;;5031239;28;20029;-72
2022/10/20 11:30:17;;;;;;;0.63;0.63;;;6.30;99.90;;;;;;5028365;28;20088;-73
2022/10/20 11:33:11;;;;;;;2.83;1.13;;;6.30;99.90;;;;;;5029245;28;20047;-70
2022/10/20 11:35:56;;;;;;;0.32;0.32;;;6.40;99.90;;;;;;5026494;28;20041;-74
2022/10/20 11:38:44;;;;;;;0.47;0.47;;;6.40;99.90;;;;;;5029820;28;20025;-73
2022/10/20 11:41:17;;;;;;;0.30;0.30;;;6.40;99.90;;;;;;5028998;28;20038;-72
2022/10/20 11:44:12;;;;;;;0.35;0.35;;;6.30;99.90;;;;;;5030583;28;20017;-72
2022/10/20 11:46:51;;;;;;;0.40;0.40;;;6.30;99.90;;;;;;5027156;28;20136;-75
2022/10/20 11:49:18;;;;;;;0.40;0.40;;;6.30;99.90;;;;;;5028066;28;20034;-71
2022/10/20 11:51:53;;;;;;;1.40;1.30;;;6.30;99.90;;;;;;5027543;28;20592;-73
2022/10/20 11:54:34;;;;;;;0.40;0.40;;;6.30;99.90;;;;;;5019192;28;20053;-71
2022/10/20 11:57:10;;;;;;;0.30;0.30;;;6.30;99.90;;;;;;5018355;28;20064;-70
2022/10/20 11:59:43;;;;;;;0.40;0.40;;;6.20;99.90;;;;;;5034037;28;20049;-70
2022/10/20 12:02:37;;;;;;;0.30;0.30;;;6.20;99.90;;;;;;5028755;28;20087;-70
2022/10/20 12:05:22;;;;;;;0.30;0.30;;;6.20;99.90;;;;;;5018500;28;20025;-71
2022/10/20 12:07:50;;;;;;;0.95;0.95;;;6.20;99.90;;;;;;5020196;28;20025;-69
2022/10/20 12:10:39;;;;;;;0.32;0.32;;;6.20;99.90;;;;;;5016316;28;20446;-70
2022/10/20 12:13:17;;;;;;;0.38;0.38;;;6.20;99.90;;;;;;5023490;28;20428;-70
2022/10/20 12:15:48;;;;;;;0.40;0.40;;;6.20;99.90;;;;;;5019669;28;20033;-70
2022/10/20 12:18:27;;;;;;;0.30;0.30;;;6.30;99.90;;;;;;5026824;28;20136;-70
2022/10/20 12:21:00;;;;;;;0.73;0.73;;;6.30;99.90;;;;;;5026255;28;20154;-70
2022/10/20 12:23:51;;;;;;;0.50;0.50;;;6.20;99.90;;;;;;5022893;28;20155;-70
2022/10/20 12:26:31;;;;;;;0.60;0.60;;;6.20;99.90;;;;;;5019190;28;20164;-68
2022/10/20 12:28:58;;;;;;;0.30;0.30;;;6.20;99.90;;;;;;5017479;28;20061;-68
2022/10/20 12:31:44;;;;;;;0.30;0.30;;;6.20;99.90;;;;;;5014720;28;20037;-70
2022/10/20 12:34:22;;;;;;;0.40;0.40;;;6.20;99.90;;;;;;5027496;28;20076;-70
2022/10/20 12:36:48;;;;;;;0.40;0.40;;;6.20;99.90;;;;;;5021887;28;20117;-70
2022/10/20 12:39:17;;;;;;;0.60;0.60;;;6.20;99.90;;;;;;5021370;28;20444;-67
2022/10/20 12:41:58;;;;;;;0.82;0.82;;;6.30;99.90;;;;;;5023660;28;20038;-72
2022/10/20 12:44:27;;;;;;;0.40;0.40;;;6.20;99.90;;;;;;5025938;28;20133;-71
2022/10/20 12:47:05;;;;;;;0.30;0.30;;;6.20;99.90;;;;;;5019142;28;20124;-69
2022/10/20 12:49:35;;;;;;;1.15;1.10;;;6.30;99.90;;;;;;5016048;28;20037;-69
2022/10/20 12:52:03;;;;;;;0.40;0.40;;;6.30;99.90;;;;;;5010146;28;20041;-70
2022/10/20 12:54:39;;;;;;;0.50;0.50;;;6.30;99.90;;;;;;5025285;28;20025;-70
2022/10/20 12:57:36;;;;;;;0.75;0.75;;;6.30;99.90;;;;;;5023199;28;20108;-72
2022/10/20 13:00:14;;;;;;;0.40;0.40;;;6.30;99.90;;;;;;5029106;28;20391;-75
2022/10/20 13:02:51;;;;;;;0.30;0.30;;;6.30;99.90;;;;;;5028120;28;20030;-73
2022/10/20 13:05:47;;;;;;;0.40;0.40;;;6.30;99.90;;;;;;5021682;28;20117;-74
2022/10/20 13:08:19;;;;;;;0.30;0.30;;;6.30;99.90;;;;;;5029250;28;20350;-74
2022/10/20 13:10:46;;;;;;;0.30;0.30;;;6.30;99.90;;;;;;5023336;28;20033;-73
2022/10/20 13:13:11;;;;;;;0.40;0.40;;;6.40;99.90;;;;;;5024218;28;20033;-68
2022/10/20 13:15:42;;;;;;;0.60;0.60;;;6.30;99.90;;;;;;5024484;28;20035;-70
2022/10/20 13:18:11;;;;;;;0.30;0.30;;;6.30;99.90;;;;;;5039857;28;20025;-72